sensor_id;sensor_type;location;lat;lon;timestamp;P1;durP1;ratioP1;P2;durP2;ratioP2
32455;SDS011;18912;43.270;27.942;2023-04-03T00:00:59;7.53;;;3.80;;
32455;SDS011;18912;43.270;27.942;2023-04-03T00:05:51;6.30;;;3.13;;
32455;SDS011;18912;43.270;27.942;2023-04-03T00:08:17;8.65;;;3.38;;
32455;SDS011;18912;43.270;27.942;2023-04-03T00:10:42;8.37;;;4.17;;
32455;SDS011;18912;43.270;27.942;2023-04-03T00:13:08;6.23;;;3.97;;
32455;SDS011;18912;43.270;27.942;2023-04-03T00:15:35;7.78;;;4.10;;
32455;SDS011;18912;43.270;27.942;2023-04-03T00:18:01;6.80;;;3.88;;
32455;SDS011;18912;43.270;27.942;2023-04-03T00:20:26;10.17;;;4.57;;
32455;SDS011;18912;43.270;27.942;2023-04-03T00:22:52;10.73;;;5.10;;
32455;SDS011;18912;43.270;27.942;2023-04-03T00:25:19;12.05;;;5.45;;
32455;SDS011;18912;43.270;27.942;2023-04-03T00:27:44;9.73;;;4.60;;
32455;SDS011;18912;43.270;27.942;2023-04-03T00:30:10;9.77;;;4.60;;
32455;SDS011;18912;43.270;27.942;2023-04-03T00:32:39;9.68;;;4.97;;
32455;SDS011;18912;43.270;27.942;2023-04-03T00:35:05;7.70;;;3.53;;
32455;SDS011;18912;43.270;27.942;2023-04-03T00:37:30;11.60;;;6.07;;
32455;SDS011;18912;43.270;27.942;2023-04-03T00:39:56;15.97;;;5.77;;
32455;SDS011;18912;43.270;27.942;2023-04-03T00:42:21;13.03;;;6.27;;
32455;SDS011;18912;43.270;27.942;2023-04-03T00:47:13;4.73;;;3.20;;
32455;SDS011;18912;43.270;27.942;2023-04-03T00:49:41;10.35;;;3.90;;
32455;SDS011;18912;43.270;27.942;2023-04-03T00:52:09;12.63;;;4.10;;
32455;SDS011;18912;43.270;27.942;2023-04-03T00:54:38;5.78;;;3.45;;
32455;SDS011;18912;43.270;27.942;2023-04-03T00:57:05;9.30;;;3.38;;
32455;SDS011;18912;43.270;27.942;2023-04-03T01:02:00;6.82;;;2.75;;
32455;SDS011;18912;43.270;27.942;2023-04-03T01:04:28;4.80;;;2.60;;
32455;SDS011;18912;43.270;27.942;2023-04-03T01:06:56;4.80;;;2.42;;
32455;SDS011;18912;43.270;27.942;2023-04-03T01:09:26;4.05;;;2.60;;
32455;SDS011;18912;43.270;27.942;2023-04-03T01:11:53;3.90;;;2.28;;
32455;SDS011;18912;43.270;27.942;2023-04-03T01:14:18;4.20;;;2.50;;
32455;SDS011;18912;43.270;27.942;2023-04-03T01:16:51;4.33;;;2.33;;
32455;SDS011;18912;43.270;27.942;2023-04-03T01:19:20;5.63;;;2.60;;
32455;SDS011;18912;43.270;27.942;2023-04-03T01:22:11;5.82;;;2.33;;
32455;SDS011;18912;43.270;27.942;2023-04-03T01:24:39;5.47;;;2.47;;
32455;SDS011;18912;43.270;27.942;2023-04-03T01:27:05;4.87;;;2.90;;
32455;SDS011;18912;43.270;27.942;2023-04-03T01:29:32;4.80;;;3.33;;
32455;SDS011;18912;43.270;27.942;2023-04-03T01:31:59;4.90;;;2.35;;
32455;SDS011;18912;43.270;27.942;2023-04-03T01:34:26;4.18;;;2.70;;
32455;SDS011;18912;43.270;27.942;2023-04-03T01:36:53;7.68;;;2.95;;
32455;SDS011;18912;43.270;27.942;2023-04-03T01:39:19;5.27;;;1.77;;
32455;SDS011;18912;43.270;27.942;2023-04-03T01:41:45;4.95;;;2.67;;
32455;SDS011;18912;43.270;27.942;2023-04-03T01:44:10;3.90;;;2.47;;
32455;SDS011;18912;43.270;27.942;2023-04-03T01:46:36;2.90;;;2.00;;
32455;SDS011;18912;43.270;27.942;2023-04-03T01:49:02;8.55;;;2.25;;
32455;SDS011;18912;43.270;27.942;2023-04-03T01:51:29;4.65;;;1.85;;
32455;SDS011;18912;43.270;27.942;2023-04-03T01:53:55;2.63;;;1.70;;
32455;SDS011;18912;43.270;27.942;2023-04-03T01:56:20;2.30;;;1.90;;
32455;SDS011;18912;43.270;27.942;2023-04-03T01:58:46;3.17;;;2.30;;
32455;SDS011;18912;43.270;27.942;2023-04-03T02:01:11;4.70;;;3.40;;
32455;SDS011;18912;43.270;27.942;2023-04-03T02:03:37;8.20;;;3.40;;
32455;SDS011;18912;43.270;27.942;2023-04-03T02:06:03;9.97;;;3.87;;
32455;SDS011;18912;43.270;27.942;2023-04-03T02:08:28;11.27;;;4.70;;
32455;SDS011;18912;43.270;27.942;2023-04-03T02:10:54;10.13;;;4.83;;
32455;SDS011;18912;43.270;27.942;2023-04-03T02:13:19;11.57;;;5.23;;
32455;SDS011;18912;43.270;27.942;2023-04-03T02:15:45;10.63;;;4.27;;
32455;SDS011;18912;43.270;27.942;2023-04-03T02:18:11;5.67;;;3.17;;
32455;SDS011;18912;43.270;27.942;2023-04-03T02:20:37;3.88;;;2.03;;
32455;SDS011;18912;43.270;27.942;2023-04-03T02:23:03;4.60;;;2.80;;
32455;SDS011;18912;43.270;27.942;2023-04-03T02:25:30;4.57;;;2.43;;
32455;SDS011;18912;43.270;27.942;2023-04-03T02:27:56;3.20;;;1.90;;
32455;SDS011;18912;43.270;27.942;2023-04-03T02:30:22;2.57;;;1.73;;
32455;SDS011;18912;43.270;27.942;2023-04-03T02:32:47;3.33;;;1.70;;
32455;SDS011;18912;43.270;27.942;2023-04-03T02:35:13;2.50;;;1.70;;
32455;SDS011;18912;43.270;27.942;2023-04-03T02:37:38;8.93;;;2.30;;
32455;SDS011;18912;43.270;27.942;2023-04-03T02:40:04;3.33;;;2.00;;
32455;SDS011;18912;43.270;27.942;2023-04-03T02:42:31;4.90;;;2.53;;
32455;SDS011;18912;43.270;27.942;2023-04-03T02:44:56;4.17;;;2.40;;
32455;SDS011;18912;43.270;27.942;2023-04-03T02:47:22;4.53;;;2.00;;
32455;SDS011;18912;43.270;27.942;2023-04-03T02:49:47;7.60;;;3.77;;
32455;SDS011;18912;43.270;27.942;2023-04-03T02:52:13;14.90;;;7.60;;
32455;SDS011;18912;43.270;27.942;2023-04-03T02:57:05;18.25;;;9.27;;
32455;SDS011;18912;43.270;27.942;2023-04-03T02:59:34;41.35;;;20.95;;
32455;SDS011;18912;43.270;27.942;2023-04-03T03:02:00;15.15;;;6.55;;
32455;SDS011;18912;43.270;27.942;2023-04-03T03:04:26;12.33;;;5.43;;
32455;SDS011;18912;43.270;27.942;2023-04-03T03:06:51;6.70;;;3.83;;
32455;SDS011;18912;43.270;27.942;2023-04-03T03:09:17;7.53;;;3.57;;
32455;SDS011;18912;43.270;27.942;2023-04-03T03:11:43;12.23;;;3.43;;
32455;SDS011;18912;43.270;27.942;2023-04-03T03:14:08;4.67;;;2.90;;
32455;SDS011;18912;43.270;27.942;2023-04-03T03:16:34;11.63;;;2.83;;
32455;SDS011;18912;43.270;27.942;2023-04-03T03:19:00;9.57;;;3.28;;
32455;SDS011;18912;43.270;27.942;2023-04-03T03:21:25;7.50;;;2.53;;
32455;SDS011;18912;43.270;27.942;2023-04-03T03:23:51;3.83;;;2.40;;
32455;SDS011;18912;43.270;27.942;2023-04-03T03:26:16;3.30;;;2.23;;
32455;SDS011;18912;43.270;27.942;2023-04-03T03:28:42;8.20;;;2.57;;
32455;SDS011;18912;43.270;27.942;2023-04-03T03:31:08;37.80;;;13.20;;
32455;SDS011;18912;43.270;27.942;2023-04-03T03:33:33;30.77;;;11.05;;
32455;SDS011;18912;43.270;27.942;2023-04-03T03:35:59;25.63;;;9.97;;
32455;SDS011;18912;43.270;27.942;2023-04-03T03:38:25;32.37;;;12.50;;
32455;SDS011;18912;43.270;27.942;2023-04-03T03:40:51;28.27;;;10.93;;
32455;SDS011;18912;43.270;27.942;2023-04-03T03:43:17;21.23;;;7.60;;
32455;SDS011;18912;43.270;27.942;2023-04-03T03:45:43;13.23;;;6.68;;
32455;SDS011;18912;43.270;27.942;2023-04-03T03:48:09;16.52;;;6.05;;
32455;SDS011;18912;43.270;27.942;2023-04-03T03:50:35;8.80;;;3.67;;
32455;SDS011;18912;43.270;27.942;2023-04-03T03:53:00;5.00;;;2.90;;
32455;SDS011;18912;43.270;27.942;2023-04-03T03:55:26;13.83;;;3.90;;
32455;SDS011;18912;43.270;27.942;2023-04-03T03:57:52;13.68;;;5.22;;
32455;SDS011;18912;43.270;27.942;2023-04-03T04:00:17;18.20;;;6.27;;
32455;SDS011;18912;43.270;27.942;2023-04-03T04:02:43;18.80;;;7.43;;
32455;SDS011;18912;43.270;27.942;2023-04-03T04:05:09;15.37;;;5.10;;
32455;SDS011;18912;43.270;27.942;2023-04-03T04:07:34;22.17;;;6.35;;
32455;SDS011;18912;43.270;27.942;2023-04-03T04:10:00;14.27;;;6.60;;
32455;SDS011;18912;43.270;27.942;2023-04-03T04:12:26;10.93;;;4.30;;
32455;SDS011;18912;43.270;27.942;2023-04-03T04:14:51;5.60;;;2.90;;
32455;SDS011;18912;43.270;27.942;2023-04-03T04:17:16;9.40;;;3.87;;
32455;SDS011;18912;43.270;27.942;2023-04-03T04:19:42;4.72;;;2.55;;
32455;SDS011;18912;43.270;27.942;2023-04-03T04:22:08;11.70;;;3.57;;
32455;SDS011;18912;43.270;27.942;2023-04-03T04:24:33;7.67;;;3.23;;
32455;SDS011;18912;43.270;27.942;2023-04-03T04:26:59;6.67;;;3.20;;
32455;SDS011;18912;43.270;27.942;2023-04-03T04:29:24;8.27;;;1.83;;
32455;SDS011;18912;43.270;27.942;2023-04-03T04:31:50;4.53;;;2.07;;
32455;SDS011;18912;43.270;27.942;2023-04-03T04:34:16;2.93;;;1.80;;
32455;SDS011;18912;43.270;27.942;2023-04-03T04:36:41;6.73;;;2.13;;
32455;SDS011;18912;43.270;27.942;2023-04-03T04:39:07;7.17;;;1.97;;
32455;SDS011;18912;43.270;27.942;2023-04-03T04:41:32;5.87;;;2.23;;
32455;SDS011;18912;43.270;27.942;2023-04-03T04:43:58;11.47;;;1.90;;
32455;SDS011;18912;43.270;27.942;2023-04-03T04:46:23;3.97;;;2.00;;
32455;SDS011;18912;43.270;27.942;2023-04-03T04:48:49;4.40;;;1.87;;
32455;SDS011;18912;43.270;27.942;2023-04-03T04:51:15;2.20;;;1.47;;
32455;SDS011;18912;43.270;27.942;2023-04-03T04:53:41;4.93;;;1.95;;
32455;SDS011;18912;43.270;27.942;2023-04-03T04:56:07;5.63;;;2.60;;
32455;SDS011;18912;43.270;27.942;2023-04-03T04:58:33;2.83;;;1.93;;
32455;SDS011;18912;43.270;27.942;2023-04-03T05:01:08;3.00;;;1.77;;
32455;SDS011;18912;43.270;27.942;2023-04-03T05:03:35;6.07;;;1.90;;
32455;SDS011;18912;43.270;27.942;2023-04-03T05:06:01;4.53;;;2.17;;
32455;SDS011;18912;43.270;27.942;2023-04-03T05:08:27;5.07;;;2.42;;
32455;SDS011;18912;43.270;27.942;2023-04-03T05:10:52;3.10;;;1.90;;
32455;SDS011;18912;43.270;27.942;2023-04-03T05:13:18;7.67;;;2.70;;
32455;SDS011;18912;43.270;27.942;2023-04-03T05:15:44;4.70;;;1.65;;
32455;SDS011;18912;43.270;27.942;2023-04-03T05:18:11;4.05;;;2.20;;
32455;SDS011;18912;43.270;27.942;2023-04-03T05:20:36;2.90;;;1.57;;
32455;SDS011;18912;43.270;27.942;2023-04-03T05:23:02;8.30;;;1.90;;
32455;SDS011;18912;43.270;27.942;2023-04-03T05:25:28;6.68;;;1.83;;
32455;SDS011;18912;43.270;27.942;2023-04-03T05:27:53;6.67;;;1.87;;
32455;SDS011;18912;43.270;27.942;2023-04-03T05:30:19;2.37;;;1.70;;
32455;SDS011;18912;43.270;27.942;2023-04-03T05:32:44;5.27;;;2.27;;
32455;SDS011;18912;43.270;27.942;2023-04-03T05:35:10;6.50;;;1.87;;
32455;SDS011;18912;43.270;27.942;2023-04-03T05:37:36;2.05;;;1.50;;
32455;SDS011;18912;43.270;27.942;2023-04-03T05:40:03;7.07;;;2.27;;
32455;SDS011;18912;43.270;27.942;2023-04-03T05:42:29;3.47;;;1.85;;
32455;SDS011;18912;43.270;27.942;2023-04-03T05:44:55;1.67;;;1.07;;
32455;SDS011;18912;43.270;27.942;2023-04-03T05:47:20;3.33;;;1.63;;
32455;SDS011;18912;43.270;27.942;2023-04-03T05:49:46;2.57;;;1.87;;
32455;SDS011;18912;43.270;27.942;2023-04-03T05:52:16;6.77;;;1.97;;
32455;SDS011;18912;43.270;27.942;2023-04-03T05:54:48;2.67;;;1.77;;
32455;SDS011;18912;43.270;27.942;2023-04-03T05:57:14;5.53;;;2.10;;
32455;SDS011;18912;43.270;27.942;2023-04-03T05:59:41;4.25;;;1.98;;
32455;SDS011;18912;43.270;27.942;2023-04-03T06:02:14;5.07;;;2.00;;
32455;SDS011;18912;43.270;27.942;2023-04-03T06:04:41;3.92;;;2.10;;
32455;SDS011;18912;43.270;27.942;2023-04-03T06:07:09;3.87;;;1.90;;
32455;SDS011;18912;43.270;27.942;2023-04-03T06:09:43;2.42;;;1.92;;
32455;SDS011;18912;43.270;27.942;2023-04-03T06:12:09;4.65;;;1.85;;
32455;SDS011;18912;43.270;27.942;2023-04-03T06:14:35;3.92;;;2.03;;
32455;SDS011;18912;43.270;27.942;2023-04-03T06:17:01;2.57;;;2.00;;
32455;SDS011;18912;43.270;27.942;2023-04-03T06:19:27;4.23;;;1.93;;
32455;SDS011;18912;43.270;27.942;2023-04-03T06:21:52;6.38;;;2.60;;
32455;SDS011;18912;43.270;27.942;2023-04-03T06:24:18;2.27;;;1.27;;
32455;SDS011;18912;43.270;27.942;2023-04-03T06:26:46;6.55;;;1.65;;
32455;SDS011;18912;43.270;27.942;2023-04-03T06:29:12;3.20;;;2.17;;
32455;SDS011;18912;43.270;27.942;2023-04-03T06:31:37;2.90;;;1.93;;
32455;SDS011;18912;43.270;27.942;2023-04-03T06:34:03;3.65;;;1.92;;
32455;SDS011;18912;43.270;27.942;2023-04-03T06:36:29;3.00;;;2.10;;
32455;SDS011;18912;43.270;27.942;2023-04-03T06:38:55;2.87;;;2.00;;
32455;SDS011;18912;43.270;27.942;2023-04-03T06:41:20;2.90;;;1.90;;
32455;SDS011;18912;43.270;27.942;2023-04-03T06:43:47;3.20;;;2.30;;
32455;SDS011;18912;43.270;27.942;2023-04-03T06:46:16;3.93;;;1.80;;
32455;SDS011;18912;43.270;27.942;2023-04-03T06:48:43;2.65;;;1.90;;
32455;SDS011;18912;43.270;27.942;2023-04-03T06:56:13;4.68;;;1.92;;
32455;SDS011;18912;43.270;27.942;2023-04-03T06:58:40;3.58;;;1.80;;
32455;SDS011;18912;43.270;27.942;2023-04-03T07:01:05;3.47;;;1.90;;
32455;SDS011;18912;43.270;27.942;2023-04-03T07:03:31;6.60;;;2.07;;
32455;SDS011;18912;43.270;27.942;2023-04-03T07:05:56;3.87;;;2.40;;
32455;SDS011;18912;43.270;27.942;2023-04-03T07:08:22;2.40;;;2.00;;
32455;SDS011;18912;43.270;27.942;2023-04-03T07:10:48;4.57;;;1.92;;
32455;SDS011;18912;43.270;27.942;2023-04-03T07:13:15;3.42;;;2.17;;
32455;SDS011;18912;43.270;27.942;2023-04-03T07:15:40;4.43;;;2.37;;
32455;SDS011;18912;43.270;27.942;2023-04-03T07:18:06;4.73;;;2.67;;
32455;SDS011;18912;43.270;27.942;2023-04-03T07:20:31;8.90;;;2.30;;
32455;SDS011;18912;43.270;27.942;2023-04-03T07:22:57;6.47;;;2.50;;
32455;SDS011;18912;43.270;27.942;2023-04-03T07:25:22;3.40;;;2.20;;
32455;SDS011;18912;43.270;27.942;2023-04-03T07:27:48;3.10;;;2.00;;
32455;SDS011;18912;43.270;27.942;2023-04-03T07:30:14;3.67;;;2.50;;
32455;SDS011;18912;43.270;27.942;2023-04-03T07:32:40;3.47;;;2.40;;
32455;SDS011;18912;43.270;27.942;2023-04-03T07:35:06;3.57;;;1.90;;
32455;SDS011;18912;43.270;27.942;2023-04-03T07:37:31;5.70;;;2.47;;
32455;SDS011;18912;43.270;27.942;2023-04-03T07:39:57;4.67;;;2.50;;
32455;SDS011;18912;43.270;27.942;2023-04-03T07:42:24;4.20;;;2.40;;
32455;SDS011;18912;43.270;27.942;2023-04-03T07:44:52;7.35;;;2.88;;
32455;SDS011;18912;43.270;27.942;2023-04-03T07:47:18;4.00;;;2.60;;
32455;SDS011;18912;43.270;27.942;2023-04-03T07:49:45;3.58;;;2.80;;
32455;SDS011;18912;43.270;27.942;2023-04-03T07:52:11;4.47;;;2.33;;
32455;SDS011;18912;43.270;27.942;2023-04-03T07:54:36;3.67;;;2.70;;
32455;SDS011;18912;43.270;27.942;2023-04-03T07:57:02;3.90;;;2.15;;
32455;SDS011;18912;43.270;27.942;2023-04-03T07:59:28;3.30;;;2.50;;
32455;SDS011;18912;43.270;27.942;2023-04-03T08:01:53;4.53;;;2.80;;
32455;SDS011;18912;43.270;27.942;2023-04-03T08:04:19;4.77;;;2.63;;
32455;SDS011;18912;43.270;27.942;2023-04-03T08:06:45;3.70;;;2.93;;
32455;SDS011;18912;43.270;27.942;2023-04-03T08:09:10;4.90;;;3.10;;
32455;SDS011;18912;43.270;27.942;2023-04-03T08:11:38;5.20;;;2.90;;
32455;SDS011;18912;43.270;27.942;2023-04-03T08:14:04;5.57;;;2.88;;
32455;SDS011;18912;43.270;27.942;2023-04-03T08:16:29;5.27;;;2.37;;
32455;SDS011;18912;43.270;27.942;2023-04-03T08:18:55;6.13;;;2.10;;
32455;SDS011;18912;43.270;27.942;2023-04-03T08:21:20;3.97;;;2.67;;
32455;SDS011;18912;43.270;27.942;2023-04-03T08:23:47;7.83;;;2.70;;
32455;SDS011;18912;43.270;27.942;2023-04-03T08:26:15;7.32;;;4.50;;
32455;SDS011;18912;43.270;27.942;2023-04-03T08:28:43;14.23;;;5.05;;
32455;SDS011;18912;43.270;27.942;2023-04-03T08:31:10;6.33;;;3.77;;
32455;SDS011;18912;43.270;27.942;2023-04-03T08:33:38;5.20;;;2.75;;
32455;SDS011;18912;43.270;27.942;2023-04-03T08:36:05;6.35;;;2.50;;
32455;SDS011;18912;43.270;27.942;2023-04-03T08:38:33;3.30;;;2.55;;
32455;SDS011;18912;43.270;27.942;2023-04-03T08:41:02;3.58;;;2.63;;
32455;SDS011;18912;43.270;27.942;2023-04-03T08:43:48;3.88;;;2.60;;
32455;SDS011;18912;43.270;27.942;2023-04-03T08:46:21;4.45;;;2.50;;
32455;SDS011;18912;43.270;27.942;2023-04-03T08:48:51;5.05;;;2.78;;
32455;SDS011;18912;43.270;27.942;2023-04-03T08:51:18;5.67;;;3.23;;
32455;SDS011;18912;43.270;27.942;2023-04-03T08:53:48;5.93;;;3.30;;
32455;SDS011;18912;43.270;27.942;2023-04-03T08:56:30;6.45;;;3.40;;
32455;SDS011;18912;43.270;27.942;2023-04-03T08:59:00;5.57;;;3.47;;
32455;SDS011;18912;43.270;27.942;2023-04-03T09:01:30;6.68;;;4.10;;
32455;SDS011;18912;43.270;27.942;2023-04-03T09:04:09;6.10;;;3.35;;
32455;SDS011;18912;43.270;27.942;2023-04-03T09:06:37;5.60;;;3.53;;
32455;SDS011;18912;43.270;27.942;2023-04-03T09:16:59;4.43;;;3.33;;
32455;SDS011;18912;43.270;27.942;2023-04-03T09:22:20;8.50;;;3.25;;
32455;SDS011;18912;43.270;27.942;2023-04-03T09:24:50;4.68;;;3.08;;
32455;SDS011;18912;43.270;27.942;2023-04-03T09:27:22;4.72;;;3.10;;
32455;SDS011;18912;43.270;27.942;2023-04-03T09:29:48;8.40;;;3.90;;
32455;SDS011;18912;43.270;27.942;2023-04-03T09:32:29;5.90;;;3.70;;
32455;SDS011;18912;43.270;27.942;2023-04-03T09:35:04;6.65;;;4.22;;
32455;SDS011;18912;43.270;27.942;2023-04-03T09:37:40;7.05;;;4.20;;
32455;SDS011;18912;43.270;27.942;2023-04-03T09:40:30;10.75;;;5.30;;
32455;SDS011;18912;43.270;27.942;2023-04-03T09:43:37;7.05;;;5.40;;
32455;SDS011;18912;43.270;27.942;2023-04-03T09:49:00;7.85;;;5.50;;
32455;SDS011;18912;43.270;27.942;2023-04-03T09:51:27;7.63;;;5.85;;
32455;SDS011;18912;43.270;27.942;2023-04-03T09:53:55;10.50;;;5.75;;
32455;SDS011;18912;43.270;27.942;2023-04-03T09:56:22;8.85;;;4.80;;
32455;SDS011;18912;43.270;27.942;2023-04-03T09:58:52;11.55;;;6.03;;
32455;SDS011;18912;43.270;27.942;2023-04-03T10:01:38;10.52;;;6.00;;
32455;SDS011;18912;43.270;27.942;2023-04-03T10:04:22;8.98;;;5.75;;
32455;SDS011;18912;43.270;27.942;2023-04-03T10:06:53;10.90;;;5.85;;
32455;SDS011;18912;43.270;27.942;2023-04-03T10:09:24;11.18;;;5.43;;
32455;SDS011;18912;43.270;27.942;2023-04-03T10:12:10;8.95;;;6.20;;
32455;SDS011;18912;43.270;27.942;2023-04-03T10:14:59;12.13;;;6.57;;
32455;SDS011;18912;43.270;27.942;2023-04-03T10:20:07;6.82;;;5.38;;
32455;SDS011;18912;43.270;27.942;2023-04-03T10:25:48;7.93;;;5.10;;
32455;SDS011;18912;43.270;27.942;2023-04-03T10:30:49;9.30;;;5.45;;
32455;SDS011;18912;43.270;27.942;2023-04-03T10:47:08;10.40;;;6.55;;
32455;SDS011;18912;43.270;27.942;2023-04-03T10:52:37;8.20;;;5.40;;
32455;SDS011;18912;43.270;27.942;2023-04-03T10:57:52;6.35;;;4.20;;
32455;SDS011;18912;43.270;27.942;2023-04-03T11:00:42;18.80;;;5.00;;
32455;SDS011;18912;43.270;27.942;2023-04-03T11:03:53;6.93;;;4.88;;
32455;SDS011;18912;43.270;27.942;2023-04-03T11:06:02;6.85;;;4.70;;
32455;SDS011;18912;43.270;27.942;2023-04-03T11:11:00;5.60;;;4.35;;
32455;SDS011;18912;43.270;27.942;2023-04-03T11:16:08;5.90;;;4.13;;
32455;SDS011;18912;43.270;27.942;2023-04-03T11:18:40;7.80;;;4.15;;
32455;SDS011;18912;43.270;27.942;2023-04-03T11:21:19;4.93;;;3.60;;
32455;SDS011;18912;43.270;27.942;2023-04-03T11:23:49;8.13;;;4.55;;
32455;SDS011;18912;43.270;27.942;2023-04-03T11:26:21;6.32;;;3.63;;
32455;SDS011;18912;43.270;27.942;2023-04-03T11:28:56;6.30;;;4.00;;
32455;SDS011;18912;43.270;27.942;2023-04-03T11:36:45;6.22;;;4.20;;
32455;SDS011;18912;43.270;27.942;2023-04-03T11:39:19;5.15;;;3.30;;
32455;SDS011;18912;43.270;27.942;2023-04-03T11:41:45;6.20;;;3.75;;
32455;SDS011;18912;43.270;27.942;2023-04-03T11:46:57;5.15;;;3.60;;
32455;SDS011;18912;43.270;27.942;2023-04-03T11:53:03;5.53;;;3.78;;
32455;SDS011;18912;43.270;27.942;2023-04-03T12:21:14;5.70;;;3.75;;
32455;SDS011;18912;43.270;27.942;2023-04-03T12:37:17;4.82;;;3.53;;
32455;SDS011;18912;43.270;27.942;2023-04-03T12:45:26;6.33;;;4.90;;
32455;SDS011;18912;43.270;27.942;2023-04-03T12:47:53;17.23;;;4.97;;
32455;SDS011;18912;43.270;27.942;2023-04-03T12:50:24;6.70;;;4.78;;
32455;SDS011;18912;43.270;27.942;2023-04-03T12:53:04;7.95;;;4.78;;
32455;SDS011;18912;43.270;27.942;2023-04-03T12:55:55;9.88;;;5.70;;
32455;SDS011;18912;43.270;27.942;2023-04-03T12:58:23;7.80;;;5.22;;
32455;SDS011;18912;43.270;27.942;2023-04-03T13:01:26;9.43;;;5.25;;
32455;SDS011;18912;43.270;27.942;2023-04-03T13:03:55;7.28;;;5.13;;
32455;SDS011;18912;43.270;27.942;2023-04-03T13:06:30;14.45;;;5.60;;
32455;SDS011;18912;43.270;27.942;2023-04-03T13:09:02;6.55;;;5.25;;
32455;SDS011;18912;43.270;27.942;2023-04-03T13:11:38;11.50;;;5.35;;
32455;SDS011;18912;43.270;27.942;2023-04-03T13:14:17;12.85;;;6.07;;
32455;SDS011;18912;43.270;27.942;2023-04-03T13:16:55;10.82;;;6.38;;
32455;SDS011;18912;43.270;27.942;2023-04-03T13:19:23;9.23;;;5.72;;
32455;SDS011;18912;43.270;27.942;2023-04-03T13:21:51;8.40;;;6.20;;
32455;SDS011;18912;43.270;27.942;2023-04-03T13:24:31;8.18;;;5.38;;
32455;SDS011;18912;43.270;27.942;2023-04-03T13:27:00;7.55;;;5.22;;
32455;SDS011;18912;43.270;27.942;2023-04-03T13:29:33;9.73;;;5.70;;
32455;SDS011;18912;43.270;27.942;2023-04-03T13:32:02;7.97;;;5.35;;
32455;SDS011;18912;43.270;27.942;2023-04-03T13:34:29;11.55;;;5.15;;
32455;SDS011;18912;43.270;27.942;2023-04-03T13:37:02;12.70;;;5.40;;
32455;SDS011;18912;43.270;27.942;2023-04-03T13:39:37;7.72;;;4.95;;
32455;SDS011;18912;43.270;27.942;2023-04-03T13:42:25;8.27;;;5.53;;
32455;SDS011;18912;43.270;27.942;2023-04-03T13:47:49;9.23;;;5.22;;
32455;SDS011;18912;43.270;27.942;2023-04-03T13:50:23;12.48;;;5.93;;
32455;SDS011;18912;43.270;27.942;2023-04-03T13:52:54;9.40;;;5.85;;
32455;SDS011;18912;43.270;27.942;2023-04-03T13:55:26;12.32;;;5.55;;
32455;SDS011;18912;43.270;27.942;2023-04-03T13:58:03;10.65;;;4.97;;
32455;SDS011;18912;43.270;27.942;2023-04-03T14:00:48;8.77;;;5.38;;
32455;SDS011;18912;43.270;27.942;2023-04-03T14:05:44;7.78;;;5.05;;
32455;SDS011;18912;43.270;27.942;2023-04-03T14:08:10;8.35;;;4.90;;
32455;SDS011;18912;43.270;27.942;2023-04-03T14:10:36;7.30;;;5.30;;
32455;SDS011;18912;43.270;27.942;2023-04-03T14:13:02;8.48;;;5.28;;
32455;SDS011;18912;43.270;27.942;2023-04-03T14:15:28;8.77;;;5.07;;
32455;SDS011;18912;43.270;27.942;2023-04-03T14:17:56;9.18;;;5.35;;
32455;SDS011;18912;43.270;27.942;2023-04-03T14:20:23;6.72;;;3.75;;
32455;SDS011;18912;43.270;27.942;2023-04-03T14:22:51;7.45;;;4.93;;
32455;SDS011;18912;43.270;27.942;2023-04-03T14:27:45;8.63;;;5.07;;
32455;SDS011;18912;43.270;27.942;2023-04-03T14:30:17;9.80;;;5.57;;
32455;SDS011;18912;43.270;27.942;2023-04-03T14:32:46;9.00;;;5.70;;
32455;SDS011;18912;43.270;27.942;2023-04-03T14:35:13;8.63;;;5.38;;
32455;SDS011;18912;43.270;27.942;2023-04-03T14:37:39;12.55;;;6.63;;
32455;SDS011;18912;43.270;27.942;2023-04-03T14:40:06;10.68;;;6.50;;
32455;SDS011;18912;43.270;27.942;2023-04-03T14:42:34;12.13;;;7.10;;
32455;SDS011;18912;43.270;27.942;2023-04-03T14:45:02;14.75;;;7.30;;
32455;SDS011;18912;43.270;27.942;2023-04-03T14:47:30;14.77;;;8.02;;
32455;SDS011;18912;43.270;27.942;2023-04-03T14:49:56;13.33;;;6.90;;
32455;SDS011;18912;43.270;27.942;2023-04-03T14:52:23;12.68;;;7.53;;
32455;SDS011;18912;43.270;27.942;2023-04-03T14:54:51;14.38;;;7.50;;
32455;SDS011;18912;43.270;27.942;2023-04-03T14:57:17;11.98;;;7.15;;
32455;SDS011;18912;43.270;27.942;2023-04-03T14:59:46;9.73;;;6.63;;
32455;SDS011;18912;43.270;27.942;2023-04-03T15:02:22;15.85;;;8.40;;
32455;SDS011;18912;43.270;27.942;2023-04-03T15:04:57;13.07;;;8.57;;
32455;SDS011;18912;43.270;27.942;2023-04-03T15:07:25;13.50;;;7.90;;
32455;SDS011;18912;43.270;27.942;2023-04-03T15:09:53;11.20;;;6.82;;
32455;SDS011;18912;43.270;27.942;2023-04-03T15:12:21;17.92;;;8.52;;
32455;SDS011;18912;43.270;27.942;2023-04-03T15:17:17;14.60;;;7.85;;
32455;SDS011;18912;43.270;27.942;2023-04-03T15:19:45;13.85;;;7.18;;
32455;SDS011;18912;43.270;27.942;2023-04-03T15:22:14;10.77;;;6.50;;
32455;SDS011;18912;43.270;27.942;2023-04-03T15:24:41;10.10;;;6.47;;
32455;SDS011;18912;43.270;27.942;2023-04-03T15:27:08;13.80;;;7.63;;
32455;SDS011;18912;43.270;27.942;2023-04-03T15:29:35;12.82;;;7.53;;
32455;SDS011;18912;43.270;27.942;2023-04-03T15:32:01;13.82;;;6.97;;
32455;SDS011;18912;43.270;27.942;2023-04-03T15:34:27;10.53;;;6.33;;
32455;SDS011;18912;43.270;27.942;2023-04-03T15:36:53;13.27;;;6.30;;
32455;SDS011;18912;43.270;27.942;2023-04-03T15:39:19;11.77;;;6.97;;
32455;SDS011;18912;43.270;27.942;2023-04-03T15:41:45;11.45;;;6.93;;
32455;SDS011;18912;43.270;27.942;2023-04-03T15:44:11;12.85;;;6.95;;
32455;SDS011;18912;43.270;27.942;2023-04-03T15:46:38;11.07;;;7.20;;
32455;SDS011;18912;43.270;27.942;2023-04-03T15:49:04;12.43;;;6.68;;
32455;SDS011;18912;43.270;27.942;2023-04-03T15:53:56;12.77;;;7.68;;
32455;SDS011;18912;43.270;27.942;2023-04-03T15:56:21;12.37;;;7.60;;
32455;SDS011;18912;43.270;27.942;2023-04-03T15:58:47;10.40;;;6.77;;
32455;SDS011;18912;43.270;27.942;2023-04-03T16:01:12;11.47;;;7.43;;
32455;SDS011;18912;43.270;27.942;2023-04-03T16:03:39;14.37;;;7.87;;
32455;SDS011;18912;43.270;27.942;2023-04-03T16:06:10;12.15;;;7.63;;
32455;SDS011;18912;43.270;27.942;2023-04-03T16:08:37;13.32;;;7.35;;
32455;SDS011;18912;43.270;27.942;2023-04-03T16:11:03;16.05;;;7.85;;
32455;SDS011;18912;43.270;27.942;2023-04-03T16:13:28;15.13;;;8.33;;
32455;SDS011;18912;43.270;27.942;2023-04-03T16:15:54;14.27;;;8.40;;
32455;SDS011;18912;43.270;27.942;2023-04-03T16:18:20;20.38;;;9.07;;
32455;SDS011;18912;43.270;27.942;2023-04-03T16:20:46;13.32;;;7.70;;
32455;SDS011;18912;43.270;27.942;2023-04-03T16:23:12;15.13;;;8.63;;
32455;SDS011;18912;43.270;27.942;2023-04-03T16:25:37;15.70;;;8.90;;
32455;SDS011;18912;43.270;27.942;2023-04-03T16:28:03;11.47;;;6.40;;
32455;SDS011;18912;43.270;27.942;2023-04-03T16:30:29;14.73;;;9.20;;
32455;SDS011;18912;43.270;27.942;2023-04-03T16:32:54;15.70;;;9.30;;
32455;SDS011;18912;43.270;27.942;2023-04-03T16:35:21;15.13;;;9.10;;
32455;SDS011;18912;43.270;27.942;2023-04-03T16:37:47;14.52;;;8.80;;
32455;SDS011;18912;43.270;27.942;2023-04-03T16:40:13;14.13;;;9.03;;
32455;SDS011;18912;43.270;27.942;2023-04-03T16:42:39;17.50;;;8.40;;
32455;SDS011;18912;43.270;27.942;2023-04-03T16:45:05;14.40;;;8.40;;
32455;SDS011;18912;43.270;27.942;2023-04-03T16:47:31;13.68;;;8.80;;